sensor_id;sensor_type;location;lat;lon;timestamp;P1;durP1;ratioP1;P2;durP2;ratioP2
51358;SDS011;37448;51.588;7.248;2022-12-08T00:01:23;23.25;;;10.88;;
51358;SDS011;37448;51.588;7.248;2022-12-08T00:03:25;22.80;;;10.18;;
51358;SDS011;37448;51.588;7.248;2022-12-08T00:05:26;23.17;;;9.98;;
51358;SDS011;37448;51.588;7.248;2022-12-08T00:07:45;18.90;;;10.27;;
51358;SDS011;37448;51.588;7.248;2022-12-08T00:10:04;23.48;;;9.95;;
51358;SDS011;37448;51.588;7.248;2022-12-08T00:14:11;24.10;;;11.27;;
51358;SDS011;37448;51.588;7.248;2022-12-08T00:16:12;25.63;;;11.88;;
51358;SDS011;37448;51.588;7.248;2022-12-08T00:18:12;23.40;;;12.20;;
51358;SDS011;37448;51.588;7.248;2022-12-08T00:20:12;25.02;;;11.52;;
51358;SDS011;37448;51.588;7.248;2022-12-08T00:22:13;26.02;;;11.85;;
51358;SDS011;37448;51.588;7.248;2022-12-08T00:24:14;21.92;;;12.45;;
51358;SDS011;37448;51.588;7.248;2022-12-08T00:26:15;25.67;;;13.55;;
51358;SDS011;37448;51.588;7.248;2022-12-08T00:28:16;28.05;;;12.90;;
51358;SDS011;37448;51.588;7.248;2022-12-08T00:30:16;25.60;;;13.60;;
51358;SDS011;37448;51.588;7.248;2022-12-08T00:32:16;25.58;;;13.02;;
51358;SDS011;37448;51.588;7.248;2022-12-08T00:34:17;29.08;;;13.63;;
51358;SDS011;37448;51.588;7.248;2022-12-08T00:36:17;28.48;;;16.20;;
51358;SDS011;37448;51.588;7.248;2022-12-08T00:38:18;27.08;;;14.23;;
51358;SDS011;37448;51.588;7.248;2022-12-08T00:40:18;26.08;;;14.70;;
51358;SDS011;37448;51.588;7.248;2022-12-08T00:42:18;29.23;;;14.85;;
51358;SDS011;37448;51.588;7.248;2022-12-08T00:44:19;30.80;;;16.58;;
51358;SDS011;37448;51.588;7.248;2022-12-08T00:46:19;28.25;;;15.60;;
51358;SDS011;37448;51.588;7.248;2022-12-08T00:48:19;31.17;;;16.30;;
51358;SDS011;37448;51.588;7.248;2022-12-08T00:50:20;29.83;;;15.77;;
51358;SDS011;37448;51.588;7.248;2022-12-08T00:52:20;30.52;;;16.00;;
51358;SDS011;37448;51.588;7.248;2022-12-08T00:54:21;30.63;;;15.93;;
51358;SDS011;37448;51.588;7.248;2022-12-08T00:56:22;31.40;;;15.65;;
51358;SDS011;37448;51.588;7.248;2022-12-08T00:58:22;28.67;;;16.48;;
51358;SDS011;37448;51.588;7.248;2022-12-08T01:00:22;31.42;;;16.83;;
51358;SDS011;37448;51.588;7.248;2022-12-08T01:02:23;29.15;;;15.80;;
51358;SDS011;37448;51.588;7.248;2022-12-08T01:04:23;30.80;;;16.90;;
51358;SDS011;37448;51.588;7.248;2022-12-08T01:06:24;32.63;;;16.85;;
51358;SDS011;37448;51.588;7.248;2022-12-08T01:08:24;33.15;;;16.67;;
51358;SDS011;37448;51.588;7.248;2022-12-08T01:10:24;42.17;;;18.70;;
51358;SDS011;37448;51.588;7.248;2022-12-08T01:12:27;35.60;;;17.27;;
51358;SDS011;37448;51.588;7.248;2022-12-08T01:14:28;35.00;;;17.52;;
51358;SDS011;37448;51.588;7.248;2022-12-08T01:16:30;34.30;;;18.17;;
51358;SDS011;37448;51.588;7.248;2022-12-08T01:18:32;32.50;;;15.70;;
51358;SDS011;37448;51.588;7.248;2022-12-08T01:20:32;30.40;;;16.73;;
51358;SDS011;37448;51.588;7.248;2022-12-08T01:22:33;33.70;;;16.33;;
51358;SDS011;37448;51.588;7.248;2022-12-08T01:24:34;33.58;;;17.20;;
51358;SDS011;37448;51.588;7.248;2022-12-08T01:26:35;33.30;;;15.50;;
51358;SDS011;37448;51.588;7.248;2022-12-08T01:28:35;36.08;;;15.82;;
51358;SDS011;37448;51.588;7.248;2022-12-08T01:30:39;33.63;;;16.80;;
51358;SDS011;37448;51.588;7.248;2022-12-08T01:32:39;33.13;;;15.65;;
51358;SDS011;37448;51.588;7.248;2022-12-08T01:34:40;32.65;;;16.52;;
51358;SDS011;37448;51.588;7.248;2022-12-08T01:36:40;32.58;;;15.07;;
51358;SDS011;37448;51.588;7.248;2022-12-08T01:38:41;34.65;;;16.38;;
51358;SDS011;37448;51.588;7.248;2022-12-08T01:40:41;28.95;;;14.13;;
51358;SDS011;37448;51.588;7.248;2022-12-08T01:42:42;30.33;;;15.07;;
51358;SDS011;37448;51.588;7.248;2022-12-08T01:46:43;26.80;;;14.25;;
51358;SDS011;37448;51.588;7.248;2022-12-08T01:48:48;30.52;;;14.13;;
51358;SDS011;37448;51.588;7.248;2022-12-08T01:50:50;26.63;;;14.73;;
51358;SDS011;37448;51.588;7.248;2022-12-08T01:52:54;32.55;;;16.27;;
51358;SDS011;37448;51.588;7.248;2022-12-08T01:55:02;30.33;;;15.77;;
51358;SDS011;37448;51.588;7.248;2022-12-08T01:57:12;31.80;;;14.95;;
51358;SDS011;37448;51.588;7.248;2022-12-08T01:59:24;25.45;;;14.25;;
51358;SDS011;37448;51.588;7.248;2022-12-08T02:01:25;28.42;;;16.08;;
51358;SDS011;37448;51.588;7.248;2022-12-08T02:03:27;30.65;;;15.77;;
51358;SDS011;37448;51.588;7.248;2022-12-08T02:05:31;30.00;;;14.88;;
51358;SDS011;37448;51.588;7.248;2022-12-08T02:07:34;29.17;;;16.13;;
51358;SDS011;37448;51.588;7.248;2022-12-08T02:09:35;27.17;;;14.77;;
51358;SDS011;37448;51.588;7.248;2022-12-08T02:13:38;31.23;;;16.40;;
51358;SDS011;37448;51.588;7.248;2022-12-08T02:15:44;27.60;;;16.20;;
51358;SDS011;37448;51.588;7.248;2022-12-08T02:20:36;29.35;;;16.00;;
51358;SDS011;37448;51.588;7.248;2022-12-08T02:22:59;29.27;;;16.58;;
51358;SDS011;37448;51.588;7.248;2022-12-08T02:25:12;33.60;;;17.50;;
51358;SDS011;37448;51.588;7.248;2022-12-08T02:27:32;36.05;;;16.58;;
51358;SDS011;37448;51.588;7.248;2022-12-08T02:32:31;41.58;;;19.20;;
51358;SDS011;37448;51.588;7.248;2022-12-08T02:34:44;37.25;;;18.42;;
51358;SDS011;37448;51.588;7.248;2022-12-08T02:41:30;38.92;;;18.58;;
51358;SDS011;37448;51.588;7.248;2022-12-08T02:43:41;43.20;;;19.63;;
51358;SDS011;37448;51.588;7.248;2022-12-08T02:45:47;44.63;;;18.85;;
51358;SDS011;37448;51.588;7.248;2022-12-08T02:47:52;44.15;;;20.90;;
51358;SDS011;37448;51.588;7.248;2022-12-08T02:49:56;42.00;;;18.58;;
51358;SDS011;37448;51.588;7.248;2022-12-08T02:52:04;39.30;;;19.15;;
51358;SDS011;37448;51.588;7.248;2022-12-08T02:54:05;38.72;;;20.42;;
51358;SDS011;37448;51.588;7.248;2022-12-08T03:00:21;38.47;;;18.75;;
51358;SDS011;37448;51.588;7.248;2022-12-08T03:07:06;35.75;;;18.98;;
51358;SDS011;37448;51.588;7.248;2022-12-08T03:09:23;40.10;;;20.52;;
51358;SDS011;37448;51.588;7.248;2022-12-08T03:11:42;40.00;;;19.17;;
51358;SDS011;37448;51.588;7.248;2022-12-08T03:13:50;41.65;;;19.30;;
51358;SDS011;37448;51.588;7.248;2022-12-08T03:15:54;34.00;;;18.50;;
51358;SDS011;37448;51.588;7.248;2022-12-08T03:17:56;34.22;;;18.48;;
51358;SDS011;37448;51.588;7.248;2022-12-08T03:19:58;37.28;;;18.20;;
51358;SDS011;37448;51.588;7.248;2022-12-08T03:22:05;37.50;;;18.65;;
51358;SDS011;37448;51.588;7.248;2022-12-08T03:24:06;37.42;;;18.83;;
51358;SDS011;37448;51.588;7.248;2022-12-08T03:26:53;38.85;;;19.85;;
51358;SDS011;37448;51.588;7.248;2022-12-08T03:28:41;41.20;;;19.17;;
51358;SDS011;37448;51.588;7.248;2022-12-08T03:30:42;39.90;;;18.30;;
51358;SDS011;37448;51.588;7.248;2022-12-08T03:32:50;38.20;;;18.45;;
51358;SDS011;37448;51.588;7.248;2022-12-08T03:34:54;39.35;;;18.35;;
51358;SDS011;37448;51.588;7.248;2022-12-08T03:36:57;41.13;;;19.08;;
51358;SDS011;37448;51.588;7.248;2022-12-08T03:38:59;38.03;;;18.88;;
51358;SDS011;37448;51.588;7.248;2022-12-08T03:41:00;39.60;;;18.70;;
51358;SDS011;37448;51.588;7.248;2022-12-08T03:43:18;38.75;;;19.77;;
51358;SDS011;37448;51.588;7.248;2022-12-08T03:45:18;37.78;;;18.98;;
51358;SDS011;37448;51.588;7.248;2022-12-08T03:47:19;46.25;;;20.10;;
51358;SDS011;37448;51.588;7.248;2022-12-08T03:49:19;40.85;;;17.95;;
51358;SDS011;37448;51.588;7.248;2022-12-08T03:51:20;42.40;;;18.88;;
51358;SDS011;37448;51.588;7.248;2022-12-08T03:53:21;44.63;;;18.98;;
51358;SDS011;37448;51.588;7.248;2022-12-08T03:55:21;40.60;;;18.88;;
51358;SDS011;37448;51.588;7.248;2022-12-08T03:57:22;41.13;;;19.00;;
51358;SDS011;37448;51.588;7.248;2022-12-08T03:59:22;37.35;;;18.88;;
51358;SDS011;37448;51.588;7.248;2022-12-08T04:01:22;41.00;;;18.13;;
51358;SDS011;37448;51.588;7.248;2022-12-08T04:03:24;39.00;;;18.20;;
51358;SDS011;37448;51.588;7.248;2022-12-08T04:05:24;39.05;;;19.15;;
51358;SDS011;37448;51.588;7.248;2022-12-08T04:07:24;41.83;;;18.95;;
51358;SDS011;37448;51.588;7.248;2022-12-08T04:09:25;42.67;;;19.38;;
51358;SDS011;37448;51.588;7.248;2022-12-08T04:11:25;39.60;;;19.02;;
51358;SDS011;37448;51.588;7.248;2022-12-08T04:13:25;42.60;;;19.20;;
51358;SDS011;37448;51.588;7.248;2022-12-08T04:15:26;41.13;;;19.67;;
51358;SDS011;37448;51.588;7.248;2022-12-08T04:17:26;42.33;;;18.70;;
51358;SDS011;37448;51.588;7.248;2022-12-08T04:19:26;37.75;;;17.98;;
51358;SDS011;37448;51.588;7.248;2022-12-08T04:21:27;43.33;;;19.77;;
51358;SDS011;37448;51.588;7.248;2022-12-08T04:23:27;40.50;;;19.77;;
51358;SDS011;37448;51.588;7.248;2022-12-08T04:25:28;43.15;;;20.13;;
51358;SDS011;37448;51.588;7.248;2022-12-08T04:27:28;41.63;;;19.73;;
51358;SDS011;37448;51.588;7.248;2022-12-08T04:29:28;39.28;;;18.95;;
51358;SDS011;37448;51.588;7.248;2022-12-08T04:31:29;41.47;;;18.17;;
51358;SDS011;37448;51.588;7.248;2022-12-08T04:33:29;41.33;;;19.75;;
51358;SDS011;37448;51.588;7.248;2022-12-08T04:35:30;42.30;;;19.27;;
51358;SDS011;37448;51.588;7.248;2022-12-08T04:37:30;40.30;;;17.80;;
51358;SDS011;37448;51.588;7.248;2022-12-08T04:39:31;38.42;;;17.85;;
51358;SDS011;37448;51.588;7.248;2022-12-08T04:41:31;43.67;;;19.58;;
51358;SDS011;37448;51.588;7.248;2022-12-08T04:43:32;42.83;;;19.17;;
51358;SDS011;37448;51.588;7.248;2022-12-08T04:45:32;39.55;;;17.98;;
51358;SDS011;37448;51.588;7.248;2022-12-08T04:47:33;44.28;;;19.02;;
51358;SDS011;37448;51.588;7.248;2022-12-08T04:49:33;39.20;;;17.92;;
51358;SDS011;37448;51.588;7.248;2022-12-08T04:51:34;42.70;;;19.38;;
51358;SDS011;37448;51.588;7.248;2022-12-08T04:53:34;45.00;;;20.13;;
51358;SDS011;37448;51.588;7.248;2022-12-08T04:55:37;42.70;;;19.10;;
51358;SDS011;37448;51.588;7.248;2022-12-08T04:57:38;40.00;;;19.00;;
51358;SDS011;37448;51.588;7.248;2022-12-08T04:59:38;42.70;;;19.05;;
51358;SDS011;37448;51.588;7.248;2022-12-08T05:01:39;40.03;;;17.33;;
51358;SDS011;37448;51.588;7.248;2022-12-08T05:03:39;40.60;;;18.90;;
51358;SDS011;37448;51.588;7.248;2022-12-08T05:05:40;45.55;;;19.55;;
51358;SDS011;37448;51.588;7.248;2022-12-08T05:07:41;40.85;;;18.20;;
51358;SDS011;37448;51.588;7.248;2022-12-08T05:09:41;45.00;;;20.02;;
51358;SDS011;37448;51.588;7.248;2022-12-08T05:11:42;43.72;;;19.67;;
51358;SDS011;37448;51.588;7.248;2022-12-08T05:13:42;45.97;;;20.60;;
51358;SDS011;37448;51.588;7.248;2022-12-08T05:15:42;42.70;;;17.65;;
51358;SDS011;37448;51.588;7.248;2022-12-08T05:17:43;42.03;;;18.17;;
51358;SDS011;37448;51.588;7.248;2022-12-08T05:19:43;43.97;;;20.40;;
51358;SDS011;37448;51.588;7.248;2022-12-08T05:21:44;44.85;;;19.63;;
51358;SDS011;37448;51.588;7.248;2022-12-08T05:23:44;39.65;;;18.60;;
51358;SDS011;37448;51.588;7.248;2022-12-08T05:25:45;38.55;;;17.58;;
51358;SDS011;37448;51.588;7.248;2022-12-08T05:27:45;37.97;;;17.52;;
51358;SDS011;37448;51.588;7.248;2022-12-08T05:29:46;41.70;;;16.30;;
51358;SDS011;37448;51.588;7.248;2022-12-08T05:31:47;36.28;;;17.85;;
51358;SDS011;37448;51.588;7.248;2022-12-08T05:33:48;39.10;;;17.23;;
51358;SDS011;37448;51.588;7.248;2022-12-08T05:35:49;32.67;;;16.15;;
51358;SDS011;37448;51.588;7.248;2022-12-08T05:37:49;40.20;;;17.70;;
51358;SDS011;37448;51.588;7.248;2022-12-08T05:39:51;38.03;;;16.30;;
51358;SDS011;37448;51.588;7.248;2022-12-08T05:41:51;39.88;;;17.23;;
51358;SDS011;37448;51.588;7.248;2022-12-08T05:43:51;37.80;;;17.90;;
51358;SDS011;37448;51.588;7.248;2022-12-08T05:45:52;37.58;;;17.17;;
51358;SDS011;37448;51.588;7.248;2022-12-08T05:47:52;35.60;;;17.40;;
51358;SDS011;37448;51.588;7.248;2022-12-08T05:49:53;41.85;;;17.27;;
51358;SDS011;37448;51.588;7.248;2022-12-08T05:51:53;40.75;;;19.60;;
51358;SDS011;37448;51.588;7.248;2022-12-08T05:53:53;44.67;;;19.67;;
51358;SDS011;37448;51.588;7.248;2022-12-08T05:55:54;44.50;;;19.38;;
51358;SDS011;37448;51.588;7.248;2022-12-08T05:57:55;40.28;;;19.00;;
51358;SDS011;37448;51.588;7.248;2022-12-08T05:59:55;42.25;;;18.42;;
51358;SDS011;37448;51.588;7.248;2022-12-08T06:01:58;40.65;;;18.92;;
51358;SDS011;37448;51.588;7.248;2022-12-08T06:03:59;40.80;;;18.73;;
51358;SDS011;37448;51.588;7.248;2022-12-08T06:06:00;40.00;;;18.67;;
51358;SDS011;37448;51.588;7.248;2022-12-08T06:08:01;41.40;;;19.45;;
51358;SDS011;37448;51.588;7.248;2022-12-08T06:10:01;39.88;;;19.65;;
51358;SDS011;37448;51.588;7.248;2022-12-08T06:12:02;44.22;;;20.05;;
51358;SDS011;37448;51.588;7.248;2022-12-08T06:14:02;41.58;;;19.67;;
51358;SDS011;37448;51.588;7.248;2022-12-08T06:16:04;39.58;;;17.73;;
51358;SDS011;37448;51.588;7.248;2022-12-08T06:18:05;36.35;;;18.58;;
51358;SDS011;37448;51.588;7.248;2022-12-08T06:20:06;35.05;;;16.70;;
51358;SDS011;37448;51.588;7.248;2022-12-08T06:22:08;33.63;;;16.77;;
51358;SDS011;37448;51.588;7.248;2022-12-08T06:24:08;35.42;;;16.92;;
51358;SDS011;37448;51.588;7.248;2022-12-08T06:26:10;33.17;;;15.70;;
51358;SDS011;37448;51.588;7.248;2022-12-08T06:28:11;36.78;;;17.88;;
51358;SDS011;37448;51.588;7.248;2022-12-08T06:30:12;33.85;;;15.98;;
51358;SDS011;37448;51.588;7.248;2022-12-08T06:32:13;38.10;;;18.30;;
51358;SDS011;37448;51.588;7.248;2022-12-08T06:34:13;34.97;;;16.40;;
51358;SDS011;37448;51.588;7.248;2022-12-08T06:36:15;28.55;;;14.38;;
51358;SDS011;37448;51.588;7.248;2022-12-08T06:38:16;26.20;;;14.10;;
51358;SDS011;37448;51.588;7.248;2022-12-08T06:40:17;27.10;;;13.90;;
51358;SDS011;37448;51.588;7.248;2022-12-08T06:42:18;25.65;;;13.85;;
51358;SDS011;37448;51.588;7.248;2022-12-08T06:44:37;27.65;;;12.77;;
51358;SDS011;37448;51.588;7.248;2022-12-08T06:46:38;28.65;;;13.80;;
51358;SDS011;37448;51.588;7.248;2022-12-08T06:48:38;27.92;;;12.98;;
51358;SDS011;37448;51.588;7.248;2022-12-08T06:50:39;25.38;;;12.80;;
51358;SDS011;37448;51.588;7.248;2022-12-08T06:52:39;23.08;;;12.07;;
51358;SDS011;37448;51.588;7.248;2022-12-08T06:54:41;22.30;;;11.10;;
51358;SDS011;37448;51.588;7.248;2022-12-08T06:56:42;21.80;;;10.13;;
51358;SDS011;37448;51.588;7.248;2022-12-08T06:58:42;22.27;;;11.27;;
51358;SDS011;37448;51.588;7.248;2022-12-08T07:00:43;25.27;;;11.10;;
51358;SDS011;37448;51.588;7.248;2022-12-08T07:02:43;19.70;;;10.27;;
51358;SDS011;37448;51.588;7.248;2022-12-08T07:04:43;22.02;;;10.48;;
51358;SDS011;37448;51.588;7.248;2022-12-08T07:06:44;22.17;;;10.60;;
51358;SDS011;37448;51.588;7.248;2022-12-08T07:08:44;23.38;;;10.88;;
51358;SDS011;37448;51.588;7.248;2022-12-08T07:10:45;26.23;;;11.88;;
51358;SDS011;37448;51.588;7.248;2022-12-08T07:12:45;23.75;;;11.20;;
51358;SDS011;37448;51.588;7.248;2022-12-08T07:14:45;25.58;;;10.80;;
51358;SDS011;37448;51.588;7.248;2022-12-08T07:16:46;18.77;;;9.80;;
51358;SDS011;37448;51.588;7.248;2022-12-08T07:18:46;23.40;;;10.35;;
51358;SDS011;37448;51.588;7.248;2022-12-08T07:20:46;21.63;;;9.80;;
51358;SDS011;37448;51.588;7.248;2022-12-08T07:22:48;21.33;;;9.77;;
51358;SDS011;37448;51.588;7.248;2022-12-08T07:24:49;20.60;;;9.82;;
51358;SDS011;37448;51.588;7.248;2022-12-08T07:26:49;21.35;;;9.88;;
51358;SDS011;37448;51.588;7.248;2022-12-08T07:28:50;20.70;;;9.90;;
51358;SDS011;37448;51.588;7.248;2022-12-08T07:30:50;21.65;;;9.70;;
51358;SDS011;37448;51.588;7.248;2022-12-08T07:32:50;23.90;;;10.65;;
51358;SDS011;37448;51.588;7.248;2022-12-08T07:34:51;21.45;;;10.18;;
51358;SDS011;37448;51.588;7.248;2022-12-08T07:36:51;23.48;;;10.95;;
51358;SDS011;37448;51.588;7.248;2022-12-08T07:38:52;19.55;;;9.23;;
51358;SDS011;37448;51.588;7.248;2022-12-08T07:40:53;21.02;;;9.73;;
51358;SDS011;37448;51.588;7.248;2022-12-08T07:42:53;18.50;;;9.05;;
51358;SDS011;37448;51.588;7.248;2022-12-08T07:44:54;18.45;;;8.43;;
51358;SDS011;37448;51.588;7.248;2022-12-08T07:46:54;21.17;;;9.32;;
51358;SDS011;37448;51.588;7.248;2022-12-08T07:48:55;18.75;;;8.32;;
51358;SDS011;37448;51.588;7.248;2022-12-08T07:51:02;18.52;;;8.20;;
51358;SDS011;37448;51.588;7.248;2022-12-08T07:53:04;18.40;;;8.07;;
51358;SDS011;37448;51.588;7.248;2022-12-08T07:55:05;18.52;;;8.38;;
51358;SDS011;37448;51.588;7.248;2022-12-08T07:57:06;17.60;;;8.18;;
51358;SDS011;37448;51.588;7.248;2022-12-08T07:59:08;16.80;;;8.68;;
51358;SDS011;37448;51.588;7.248;2022-12-08T08:01:24;18.98;;;8.60;;
51358;SDS011;37448;51.588;7.248;2022-12-08T08:03:27;19.13;;;8.50;;
51358;SDS011;37448;51.588;7.248;2022-12-08T08:05:27;18.77;;;8.15;;
51358;SDS011;37448;51.588;7.248;2022-12-08T08:07:29;16.75;;;7.55;;
51358;SDS011;37448;51.588;7.248;2022-12-08T08:09:30;18.23;;;8.75;;
51358;SDS011;37448;51.588;7.248;2022-12-08T08:11:30;19.90;;;8.23;;
51358;SDS011;37448;51.588;7.248;2022-12-08T08:13:30;21.08;;;9.52;;
51358;SDS011;37448;51.588;7.248;2022-12-08T08:15:31;23.33;;;9.27;;
51358;SDS011;37448;51.588;7.248;2022-12-08T08:17:31;22.25;;;8.95;;
51358;SDS011;37448;51.588;7.248;2022-12-08T08:19:32;21.10;;;9.30;;
51358;SDS011;37448;51.588;7.248;2022-12-08T08:21:33;22.58;;;9.98;;
51358;SDS011;37448;51.588;7.248;2022-12-08T08:23:33;24.02;;;11.18;;
51358;SDS011;37448;51.588;7.248;2022-12-08T08:25:34;30.13;;;14.00;;
51358;SDS011;37448;51.588;7.248;2022-12-08T08:27:34;28.52;;;13.23;;
51358;SDS011;37448;51.588;7.248;2022-12-08T08:29:35;30.38;;;14.57;;
51358;SDS011;37448;51.588;7.248;2022-12-08T08:31:35;31.33;;;13.90;;
51358;SDS011;37448;51.588;7.248;2022-12-08T08:33:36;30.00;;;13.30;;
51358;SDS011;37448;51.588;7.248;2022-12-08T08:35:36;30.27;;;14.20;;
51358;SDS011;37448;51.588;7.248;2022-12-08T08:37:36;26.88;;;12.07;;
51358;SDS011;37448;51.588;7.248;2022-12-08T08:39:37;24.77;;;12.38;;
51358;SDS011;37448;51.588;7.248;2022-12-08T08:41:37;21.77;;;10.35;;
51358;SDS011;37448;51.588;7.248;2022-12-08T08:43:38;23.55;;;10.52;;
51358;SDS011;37448;51.588;7.248;2022-12-08T08:45:39;22.08;;;10.50;;
51358;SDS011;37448;51.588;7.248;2022-12-08T08:47:39;20.42;;;10.57;;
51358;SDS011;37448;51.588;7.248;2022-12-08T08:49:40;21.08;;;11.02;;
51358;SDS011;37448;51.588;7.248;2022-12-08T08:51:40;19.00;;;9.65;;
51358;SDS011;37448;51.588;7.248;2022-12-08T08:53:41;21.63;;;10.35;;
51358;SDS011;37448;51.588;7.248;2022-12-08T08:55:41;21.17;;;10.32;;
51358;SDS011;37448;51.588;7.248;2022-12-08T08:57:42;19.45;;;10.65;;
51358;SDS011;37448;51.588;7.248;2022-12-08T08:59:43;22.08;;;10.85;;
51358;SDS011;37448;51.588;7.248;2022-12-08T09:01:43;20.95;;;10.43;;
51358;SDS011;37448;51.588;7.248;2022-12-08T09:03:43;25.27;;;11.90;;
51358;SDS011;37448;51.588;7.248;2022-12-08T09:05:44;26.58;;;13.88;;
51358;SDS011;37448;51.588;7.248;2022-12-08T09:07:44;26.13;;;12.52;;
51358;SDS011;37448;51.588;7.248;2022-12-08T09:09:45;24.83;;;12.32;;
51358;SDS011;37448;51.588;7.248;2022-12-08T09:11:45;24.15;;;12.98;;
51358;SDS011;37448;51.588;7.248;2022-12-08T09:13:46;25.92;;;13.52;;
51358;SDS011;37448;51.588;7.248;2022-12-08T09:15:47;25.73;;;14.03;;
51358;SDS011;37448;51.588;7.248;2022-12-08T09:17:48;25.42;;;11.68;;
51358;SDS011;37448;51.588;7.248;2022-12-08T09:19:48;28.17;;;13.70;;
51358;SDS011;37448;51.588;7.248;2022-12-08T09:21:49;25.23;;;12.13;;
51358;SDS011;37448;51.588;7.248;2022-12-08T09:23:50;24.58;;;12.23;;
51358;SDS011;37448;51.588;7.248;2022-12-08T09:25:52;20.63;;;11.20;;
51358;SDS011;37448;51.588;7.248;2022-12-08T09:27:53;26.13;;;13.07;;
51358;SDS011;37448;51.588;7.248;2022-12-08T09:29:53;22.48;;;12.45;;
51358;SDS011;37448;51.588;7.248;2022-12-08T09:31:53;24.50;;;12.93;;
51358;SDS011;37448;51.588;7.248;2022-12-08T09:33:55;23.52;;;12.38;;
51358;SDS011;37448;51.588;7.248;2022-12-08T09:35:55;20.77;;;11.88;;
51358;SDS011;37448;51.588;7.248;2022-12-08T09:37:56;25.55;;;12.98;;
51358;SDS011;37448;51.588;7.248;2022-12-08T09:39:56;22.73;;;11.93;;
51358;SDS011;37448;51.588;7.248;2022-12-08T09:41:58;19.77;;;10.65;;
51358;SDS011;37448;51.588;7.248;2022-12-08T09:44:05;21.92;;;11.40;;
51358;SDS011;37448;51.588;7.248;2022-12-08T09:46:09;21.73;;;11.10;;
51358;SDS011;37448;51.588;7.248;2022-12-08T09:48:13;20.30;;;10.85;;
51358;SDS011;37448;51.588;7.248;2022-12-08T09:50:21;20.30;;;11.02;;
51358;SDS011;37448;51.588;7.248;2022-12-08T09:52:29;21.98;;;11.18;;
51358;SDS011;37448;51.588;7.248;2022-12-08T09:54:34;22.33;;;9.82;;
51358;SDS011;37448;51.588;7.248;2022-12-08T09:56:35;21.40;;;10.93;;
51358;SDS011;37448;51.588;7.248;2022-12-08T10:00:50;20.30;;;10.60;;
51358;SDS011;37448;51.588;7.248;2022-12-08T10:02:51;22.27;;;10.18;;
51358;SDS011;37448;51.588;7.248;2022-12-08T10:04:53;19.08;;;10.18;;
51358;SDS011;37448;51.588;7.248;2022-12-08T10:06:57;19.25;;;10.13;;
51358;SDS011;37448;51.588;7.248;2022-12-08T10:12:09;19.98;;;9.25;;
51358;SDS011;37448;51.588;7.248;2022-12-08T10:14:33;18.38;;;10.30;;
51358;SDS011;37448;51.588;7.248;2022-12-08T10:16:41;20.15;;;9.98;;
51358;SDS011;37448;51.588;7.248;2022-12-08T10:18:46;20.98;;;10.05;;
51358;SDS011;37448;51.588;7.248;2022-12-08T10:20:56;22.40;;;11.05;;
51358;SDS011;37448;51.588;7.248;2022-12-08T10:23:24;23.38;;;10.85;;
51358;SDS011;37448;51.588;7.248;2022-12-08T10:25:33;24.30;;;11.35;;
51358;SDS011;37448;51.588;7.248;2022-12-08T10:27:45;25.88;;;12.90;;
51358;SDS011;37448;51.588;7.248;2022-12-08T10:29:48;26.20;;;12.70;;
51358;SDS011;37448;51.588;7.248;2022-12-08T10:31:49;24.73;;;12.57;;
51358;SDS011;37448;51.588;7.248;2022-12-08T10:33:52;25.23;;;12.27;;
51358;SDS011;37448;51.588;7.248;2022-12-08T10:35:57;25.67;;;13.27;;
51358;SDS011;37448;51.588;7.248;2022-12-08T10:38:01;25.55;;;13.15;;
51358;SDS011;37448;51.588;7.248;2022-12-08T10:40:09;26.58;;;12.65;;
51358;SDS011;37448;51.588;7.248;2022-12-08T10:42:16;27.02;;;12.98;;
51358;SDS011;37448;51.588;7.248;2022-12-08T10:44:18;26.65;;;14.02;;
51358;SDS011;37448;51.588;7.248;2022-12-08T10:46:20;25.08;;;12.98;;
51358;SDS011;37448;51.588;7.248;2022-12-08T10:48:25;27.70;;;13.65;;
51358;SDS011;37448;51.588;7.248;2022-12-08T10:50:43;26.60;;;14.00;;
51358;SDS011;37448;51.588;7.248;2022-12-08T10:52:53;30.48;;;15.02;;
51358;SDS011;37448;51.588;7.248;2022-12-08T10:55:13;25.38;;;13.38;;
51358;SDS011;37448;51.588;7.248;2022-12-08T10:57:21;28.83;;;14.18;;
51358;SDS011;37448;51.588;7.248;2022-12-08T10:59:22;29.17;;;13.57;;
51358;SDS011;37448;51.588;7.248;2022-12-08T11:01:27;24.15;;;12.73;;
51358;SDS011;37448;51.588;7.248;2022-12-08T11:03:37;23.17;;;11.88;;
51358;SDS011;37448;51.588;7.248;2022-12-08T11:05:43;22.45;;;11.70;;
51358;SDS011;37448;51.588;7.248;2022-12-08T11:07:48;19.02;;;10.73;;
51358;SDS011;37448;51.588;7.248;2022-12-08T11:09:52;21.15;;;10.68;;
51358;SDS011;37448;51.588;7.248;2022-12-08T11:11:59;19.90;;;11.27;;
51358;SDS011;37448;51.588;7.248;2022-12-08T11:14:06;19.42;;;10.50;;
51358;SDS011;37448;51.588;7.248;2022-12-08T11:16:07;17.08;;;9.98;;
51358;SDS011;37448;51.588;7.248;2022-12-08T11:20:28;19.33;;;9.80;;
51358;SDS011;37448;51.588;7.248;2022-12-08T11:22:42;19.42;;;9.77;;
51358;SDS011;37448;51.588;7.248;2022-12-08T11:24:44;20.92;;;10.75;;
51358;SDS011;37448;51.588;7.248;2022-12-08T11:26:52;20.88;;;10.82;;
51358;SDS011;37448;51.588;7.248;2022-12-08T11:29:03;20.90;;;10.90;;
51358;SDS011;37448;51.588;7.248;2022-12-08T11:31:05;23.27;;;12.95;;
51358;SDS011;37448;51.588;7.248;2022-12-08T11:33:20;22.98;;;11.55;;
51358;SDS011;37448;51.588;7.248;2022-12-08T11:35:26;20.13;;;10.65;;
51358;SDS011;37448;51.588;7.248;2022-12-08T11:37:32;25.17;;;12.30;;
51358;SDS011;37448;51.588;7.248;2022-12-08T11:39:41;20.63;;;10.48;;
51358;SDS011;37448;51.588;7.248;2022-12-08T11:41:46;20.25;;;10.82;;
51358;SDS011;37448;51.588;7.248;2022-12-08T11:43:54;21.40;;;10.82;;
51358;SDS011;37448;51.588;7.248;2022-12-08T11:46:26;21.13;;;11.73;;
51358;SDS011;37448;51.588;7.248;2022-12-08T11:48:35;19.98;;;10.27;;
51358;SDS011;37448;51.588;7.248;2022-12-08T11:50:48;19.30;;;10.38;;
51358;SDS011;37448;51.588;7.248;2022-12-08T11:52:52;21.13;;;10.43;;
51358;SDS011;37448;51.588;7.248;2022-12-08T11:55:00;19.25;;;10.98;;
51358;SDS011;37448;51.588;7.248;2022-12-08T11:57:06;19.08;;;10.57;;
51358;SDS011;37448;51.588;7.248;2022-12-08T11:59:26;18.55;;;10.88;;
51358;SDS011;37448;51.588;7.248;2022-12-08T12:01:30;19.98;;;11.38;;
51358;SDS011;37448;51.588;7.248;2022-12-08T12:03:42;20.45;;;11.68;;
51358;SDS011;37448;51.588;7.248;2022-12-08T12:05:59;20.58;;;11.75;;
51358;SDS011;37448;51.588;7.248;2022-12-08T12:19:36;18.30;;;9.90;;
51358;SDS011;37448;51.588;7.248;2022-12-08T12:21:41;16.50;;;8.77;;
51358;SDS011;37448;51.588;7.248;2022-12-08T12:23:45;15.38;;;8.43;;
51358;SDS011;37448;51.588;7.248;2022-12-08T12:26:00;17.05;;;8.48;;
51358;SDS011;37448;51.588;7.248;2022-12-08T12:28:04;18.33;;;9.25;;
51358;SDS011;37448;51.588;7.248;2022-12-08T12:30:08;16.40;;;9.07;;
51358;SDS011;37448;51.588;7.248;2022-12-08T12:32:19;19.13;;;10.32;;
51358;SDS011;37448;51.588;7.248;2022-12-08T12:34:37;17.73;;;9.60;;
51358;SDS011;37448;51.588;7.248;2022-12-08T12:36:50;16.25;;;8.98;;
51358;SDS011;37448;51.588;7.248;2022-12-08T12:38:54;18.33;;;10.18;;
51358;SDS011;37448;51.588;7.248;2022-12-08T12:41:02;19.23;;;10.95;;
51358;SDS011;37448;51.588;7.248;2022-12-08T12:51:45;17.67;;;9.50;;
51358;SDS011;37448;51.588;7.248;2022-12-08T12:53:47;20.08;;;9.98;;
51358;SDS011;37448;51.588;7.248;2022-12-08T12:57:55;19.55;;;9.95;;